createdAt,value
2019-01-08T00:01:27.746Z,90.50
2019-01-08T00:03:54.143Z,90.60
2019-01-08T00:06:20.574Z,90.60
2019-01-08T00:08:47.014Z,90.50
2019-01-08T00:11:13.320Z,90.80
2019-01-08T00:13:39.612Z,90.50
2019-01-08T00:16:06.024Z,90.50
2019-01-08T00:18:32.457Z,90.50
2019-01-08T00:20:58.758Z,91.10
2019-01-08T00:23:25.058Z,90.80
2019-01-08T00:25:51.481Z,90.80
2019-01-08T00:28:17.977Z,90.70
2019-01-08T00:30:44.314Z,90.80
2019-01-08T00:33:10.598Z,90.70
2019-01-08T00:35:36.887Z,90.80
2019-01-08T00:38:03.290Z,90.70
2019-01-08T00:40:29.840Z,90.60
2019-01-08T00:42:56.173Z,91.00
2019-01-08T00:45:22.462Z,90.70
2019-01-08T00:47:48.754Z,90.70
2019-01-08T00:50:15.371Z,90.70
2019-01-08T00:52:41.671Z,90.40
2019-01-08T00:55:08.081Z,90.50
2019-01-08T00:57:34.369Z,90.60
2019-01-08T01:00:00.674Z,90.50
2019-01-08T01:02:27.070Z,90.60
2019-01-08T01:04:53.502Z,90.70
2019-01-08T01:07:20.547Z,90.60
2019-01-08T01:09:46.820Z,90.60
2019-01-08T01:12:13.279Z,90.70
2019-01-08T01:14:39.574Z,90.70
2019-01-08T01:17:06.024Z,90.60
2019-01-08T01:19:32.410Z,90.60
2019-01-08T01:21:59.018Z,90.70
2019-01-08T01:24:25.454Z,90.60
2019-01-08T01:26:51.836Z,90.70
2019-01-08T01:29:18.275Z,90.70
2019-01-08T01:31:44.669Z,90.70
2019-01-08T01:34:11.075Z,90.70
2019-01-08T01:36:37.406Z,90.70
2019-01-08T01:39:04.705Z,90.70
2019-01-08T01:41:31.262Z,90.80
2019-01-08T01:43:57.557Z,90.80
2019-01-08T01:46:23.858Z,90.90
2019-01-08T01:48:50.476Z,90.70
2019-01-08T01:51:16.875Z,90.70
2019-01-08T01:53:43.425Z,90.70
2019-01-08T01:56:09.820Z,90.60
2019-01-08T01:58:36.113Z,90.70
2019-01-08T02:01:02.446Z,90.70
2019-01-08T02:03:28.743Z,90.80
2019-01-08T02:05:55.174Z,90.70
2019-01-08T02:08:21.697Z,90.50
2019-01-08T02:10:48.119Z,90.50
2019-01-08T02:13:14.513Z,90.60
2019-01-08T02:15:40.814Z,90.70
2019-01-08T02:18:07.150Z,90.50
2019-01-08T02:20:33.650Z,90.50
2019-01-08T02:23:00.150Z,90.60
2019-01-08T02:25:26.551Z,90.50
2019-01-08T02:27:52.955Z,90.50
2019-01-08T02:30:19.446Z,90.70
2019-01-08T02:32:45.694Z,90.60
2019-01-08T02:35:11.979Z,90.50
2019-01-08T02:37:38.412Z,90.40
2019-01-08T02:40:04.809Z,90.40
2019-01-08T02:42:31.152Z,90.40
2019-01-08T02:44:57.550Z,90.40
2019-01-08T02:47:23.848Z,90.40
2019-01-08T02:49:50.382Z,90.40
2019-01-08T02:52:16.665Z,90.40
2019-01-08T02:54:43.331Z,90.40
2019-01-08T02:57:09.802Z,90.40
2019-01-08T02:59:36.202Z,90.40
2019-01-08T03:02:03.017Z,90.50
2019-01-08T03:04:29.419Z,90.60
2019-01-08T03:06:55.750Z,90.50
2019-01-08T03:09:22.170Z,90.40
2019-01-08T03:11:48.502Z,90.40
2019-01-08T03:14:14.903Z,90.30
2019-01-08T03:16:41.206Z,90.50
2019-01-08T03:19:07.763Z,90.50
2019-01-08T03:21:34.045Z,90.40
2019-01-08T03:24:00.558Z,90.40
2019-01-08T03:26:26.961Z,90.40
2019-01-08T03:28:53.465Z,90.20
2019-01-08T03:31:19.802Z,90.30
2019-01-08T03:33:46.206Z,90.30
2019-01-08T03:36:12.716Z,90.20
2019-01-08T03:38:39.134Z,90.20
2019-01-08T03:41:05.428Z,90.40
2019-01-08T03:43:31.762Z,90.50
2019-01-08T03:45:58.166Z,90.50
2019-01-08T03:48:24.698Z,90.40
2019-01-08T03:50:51.026Z,90.40
2019-01-08T03:53:17.342Z,90.30
2019-01-08T03:55:43.680Z,90.20
2019-01-08T03:58:09.984Z,90.20
2019-01-08T04:00:36.357Z,90.20
2019-01-08T04:03:02.770Z,90.20
2019-01-08T04:05:29.273Z,90.10
2019-01-08T04:07:55.589Z,90.10
2019-01-08T04:10:22.250Z,90.10
2019-01-08T04:12:48.673Z,90.10
2019-01-08T04:15:15.061Z,90.10
2019-01-08T04:17:41.478Z,90.10
2019-01-08T04:20:07.769Z,90.20
2019-01-08T04:22:34.170Z,90.20
2019-01-08T04:25:00.406Z,90.20
2019-01-08T04:27:26.807Z,90.40
2019-01-08T04:29:53.203Z,90.40
2019-01-08T04:32:19.606Z,90.30
2019-01-08T04:34:46.243Z,90.40
2019-01-08T04:37:15.822Z,90.40
2019-01-08T04:39:42.108Z,90.20
2019-01-08T04:42:08.397Z,90.40
2019-01-08T04:44:34.690Z,90.30
2019-01-08T04:47:01.229Z,90.80
2019-01-08T04:49:27.739Z,90.70
2019-01-08T04:51:58.907Z,90.90
2019-01-08T04:54:25.554Z,91.00
2019-01-08T04:56:51.845Z,79.40
2019-01-08T04:59:18.312Z,77.30
2019-01-08T05:01:44.826Z,81.00
2019-01-08T05:04:12.062Z,87.10
2019-01-08T05:06:38.396Z,88.90
2019-01-08T05:09:04.709Z,87.60
2019-01-08T05:11:31.069Z,87.70
2019-01-08T05:13:57.357Z,87.30
2019-01-08T05:16:23.856Z,87.30
2019-01-08T05:18:50.476Z,87.70
2019-01-08T05:21:16.783Z,87.60
2019-01-08T05:23:43.112Z,88.90
2019-01-08T05:26:09.404Z,88.40
2019-01-08T05:28:35.901Z,88.80
2019-01-08T05:31:02.526Z,88.90
2019-01-08T05:33:28.809Z,88.90
2019-01-08T05:35:55.477Z,89.10
2019-01-08T05:38:21.762Z,89.20
2019-01-08T05:40:48.065Z,89.20
2019-01-08T05:43:14.505Z,89.20
2019-01-08T05:45:40.905Z,89.40
2019-01-08T05:48:07.352Z,89.40
2019-01-08T05:50:33.775Z,89.30
2019-01-08T05:53:00.050Z,89.30
2019-01-08T05:55:26.360Z,89.40
2019-01-08T05:57:52.766Z,89.20
2019-01-08T06:00:19.837Z,89.90
2019-01-08T06:02:46.146Z,89.40
2019-01-08T06:05:12.569Z,89.90
2019-01-08T06:07:39.091Z,90.00
2019-01-08T06:10:08.214Z,90.20
2019-01-08T06:12:37.576Z,90.20
2019-01-08T06:15:03.953Z,90.10
2019-01-08T06:17:30.286Z,90.30
2019-01-08T06:19:56.617Z,90.40
2019-01-08T06:22:22.898Z,90.30
2019-01-08T06:24:49.895Z,90.30
2019-01-08T06:27:16.415Z,90.00
2019-01-08T06:29:42.838Z,90.40
2019-01-08T06:32:09.368Z,90.20
2019-01-08T06:34:35.759Z,90.30
2019-01-08T06:37:02.201Z,87.80
2019-01-08T06:39:28.603Z,88.80
2019-01-08T06:41:54.899Z,91.50
2019-01-08T06:44:21.214Z,92.80
2019-01-08T06:46:47.763Z,94.00
2019-01-08T06:49:14.073Z,94.60
2019-01-08T06:51:40.473Z,94.50
2019-01-08T06:54:06.777Z,94.70
2019-01-08T06:56:33.090Z,95.00
2019-01-08T06:58:59.395Z,94.60
2019-01-08T07:01:25.822Z,94.40
2019-01-08T07:03:52.229Z,94.40
2019-01-08T07:06:18.818Z,94.40
2019-01-08T07:08:45.481Z,94.40
2019-01-08T07:11:11.794Z,94.50
2019-01-08T07:13:42.011Z,94.70
2019-01-08T07:16:08.316Z,95.00
2019-01-08T07:18:34.618Z,94.60
2019-01-08T07:21:00.917Z,94.60
2019-01-08T07:23:27.618Z,94.80
2019-01-08T07:25:54.052Z,95.00
2019-01-08T07:28:20.350Z,95.20
2019-01-08T07:30:46.953Z,95.10
2019-01-08T07:33:13.435Z,95.20
2019-01-08T07:35:39.894Z,95.20
2019-01-08T07:38:06.194Z,95.30
2019-01-08T07:40:33.102Z,95.30
2019-01-08T07:42:59.429Z,95.30
2019-01-08T07:45:25.841Z,95.30
2019-01-08T07:47:52.388Z,95.30
2019-01-08T07:50:19.026Z,95.40
2019-01-08T07:52:53.546Z,95.30
2019-01-08T07:55:20.282Z,95.30
2019-01-08T07:57:46.682Z,95.30
2019-01-08T08:00:13.108Z,95.40
2019-01-08T08:02:39.397Z,95.40
2019-01-08T08:05:05.858Z,95.30
2019-01-08T08:07:32.413Z,95.30
2019-01-08T08:09:58.730Z,95.60
2019-01-08T08:12:25.190Z,95.80
2019-01-08T08:14:51.705Z,95.40
2019-01-08T08:17:18.579Z,95.40
2019-01-08T08:19:46.958Z,95.40
2019-01-08T08:22:13.230Z,95.40
2019-01-08T08:24:39.549Z,95.40
2019-01-08T08:27:05.849Z,95.50
2019-01-08T08:29:32.241Z,95.40
2019-01-08T08:31:58.887Z,95.40
2019-01-08T08:34:25.193Z,95.40
2019-01-08T08:36:51.714Z,95.30
2019-01-08T08:39:18.223Z,95.40
2019-01-08T08:41:44.634Z,95.40
2019-01-08T08:44:11.059Z,95.30
2019-01-08T08:46:37.363Z,95.30
2019-01-08T08:49:03.697Z,95.30
2019-01-08T08:51:29.990Z,95.40
2019-01-08T08:53:56.297Z,95.30
2019-01-08T08:56:22.812Z,95.30
2019-01-08T08:58:49.483Z,95.30
2019-01-08T09:01:15.811Z,95.30
2019-01-08T09:03:42.316Z,95.30
2019-01-08T09:06:08.710Z,95.40
2019-01-08T09:08:35.034Z,95.40
2019-01-08T09:11:01.364Z,95.40
2019-01-08T09:13:28.145Z,95.60
2019-01-08T09:15:54.560Z,95.40
2019-01-08T09:18:21.030Z,95.40
2019-01-08T09:20:47.359Z,95.40
2019-01-08T09:23:13.741Z,95.40
2019-01-08T09:25:40.395Z,95.50
2019-01-08T09:28:06.694Z,95.60
2019-01-08T09:30:33.192Z,95.50
2019-01-08T09:32:59.714Z,95.50
2019-01-08T09:35:26.001Z,95.50
2019-01-08T09:37:52.426Z,95.50
2019-01-08T09:40:19.245Z,95.50
2019-01-08T09:42:45.732Z,95.50
2019-01-08T09:45:12.252Z,95.50
2019-01-08T09:47:38.669Z,95.60
2019-01-08T09:50:07.121Z,95.60
2019-01-08T09:52:33.373Z,95.60
2019-01-08T09:55:00.095Z,95.50
2019-01-08T09:57:26.499Z,95.60
2019-01-08T09:59:52.806Z,95.60
2019-01-08T10:02:19.128Z,95.60
2019-01-08T10:04:45.816Z,95.60
2019-01-08T10:07:12.230Z,95.60
2019-01-08T10:09:38.655Z,95.60
2019-01-08T10:12:05.165Z,95.80
2019-01-08T10:14:31.717Z,95.60
2019-01-08T10:17:03.773Z,95.60
2019-01-08T10:19:35.101Z,96.20
2019-01-08T10:22:02.018Z,95.70
2019-01-08T10:24:28.261Z,95.60
2019-01-08T10:26:54.690Z,95.60
2019-01-08T10:29:21.090Z,95.70
2019-01-08T10:31:47.832Z,95.70
2019-01-08T10:34:14.368Z,95.70
2019-01-08T10:36:40.649Z,95.70
2019-01-08T10:39:07.066Z,95.70
2019-01-08T10:41:33.706Z,95.70
2019-01-08T10:44:00.143Z,95.70
2019-01-08T10:46:26.472Z,95.80
2019-01-08T10:48:53.074Z,95.80
2019-01-08T10:51:19.417Z,95.80
2019-01-08T10:53:59.775Z,95.80
2019-01-08T10:56:31.296Z,95.70
2019-01-08T10:59:07.682Z,95.70
2019-01-08T11:01:46.671Z,95.80
2019-01-08T11:04:22.765Z,95.80
2019-01-08T11:06:54.606Z,95.80
2019-01-08T11:09:34.639Z,95.80
2019-01-08T11:12:10.187Z,96.20
2019-01-08T11:14:41.791Z,95.80
2019-01-08T11:17:17.991Z,95.80
2019-01-08T11:19:49.088Z,95.80
2019-01-08T11:22:15.377Z,95.80
2019-01-08T11:24:42.374Z,95.90
2019-01-08T11:27:08.678Z,95.90
2019-01-08T11:29:35.372Z,95.90
2019-01-08T11:32:01.673Z,96.30
2019-01-08T11:34:28.187Z,96.00
2019-01-08T11:36:54.765Z,96.00
2019-01-08T11:39:21.037Z,94.20
2019-01-08T11:41:47.450Z,86.20
2019-01-08T11:44:13.762Z,82.00
2019-01-08T11:46:40.398Z,81.10
2019-01-08T11:49:07.331Z,81.30
2019-01-08T11:51:33.975Z,82.60
2019-01-08T11:54:00.490Z,82.20
2019-01-08T11:56:27.042Z,82.40
2019-01-08T11:58:53.458Z,82.40
2019-01-08T12:01:19.928Z,82.90
2019-01-08T12:03:48.597Z,83.50
2019-01-08T12:06:15.442Z,83.30
2019-01-08T12:08:41.734Z,83.70
2019-01-08T12:11:08.309Z,83.90
2019-01-08T12:13:34.749Z,83.80
2019-01-08T12:16:01.263Z,83.80
2019-01-08T12:18:27.819Z,83.80
2019-01-08T12:20:54.356Z,84.40
2019-01-08T12:23:20.777Z,84.00
2019-01-08T12:25:47.519Z,85.20
2019-01-08T12:28:14.018Z,84.80
2019-01-08T12:30:40.546Z,85.20
2019-01-08T12:33:10.667Z,85.90
2019-01-08T12:35:36.937Z,86.70
2019-01-08T12:38:03.262Z,86.60
2019-01-08T12:40:29.650Z,85.90
2019-01-08T12:42:57.015Z,86.60
2019-01-08T12:45:23.757Z,85.80
2019-01-08T12:47:50.290Z,85.40
2019-01-08T12:50:16.606Z,85.30
2019-01-08T12:52:42.997Z,85.90
2019-01-08T12:55:09.533Z,86.50
2019-01-08T12:57:35.918Z,87.00
2019-01-08T13:00:04.131Z,87.30
2019-01-08T13:02:30.833Z,85.10
2019-01-08T13:04:57.168Z,85.30
2019-01-08T13:07:23.986Z,84.50
2019-01-08T13:09:50.435Z,86.20
2019-01-08T13:12:16.705Z,86.40
2019-01-08T13:14:48.559Z,86.90
2019-01-08T13:17:26.006Z,85.70
2019-01-08T13:19:56.466Z,86.40
2019-01-08T13:22:28.531Z,87.00
2019-01-08T13:25:02.207Z,88.00
2019-01-08T13:27:30.013Z,86.10
2019-01-08T13:30:01.393Z,86.00
2019-01-08T13:32:31.930Z,85.40
2019-01-08T13:35:03.303Z,85.30
2019-01-08T13:37:30.306Z,85.60
2019-01-08T13:40:05.749Z,86.50
2019-01-08T13:42:37.395Z,85.90
2019-01-08T13:45:10.963Z,86.20
2019-01-08T13:47:42.780Z,85.80
2019-01-08T13:50:15.881Z,85.80
2019-01-08T13:52:52.892Z,85.90
2019-01-08T13:55:19.802Z,85.40
2019-01-08T13:57:53.540Z,85.70
2019-01-08T14:00:23.994Z,85.30
2019-01-08T14:02:50.405Z,85.90
2019-01-08T14:05:26.398Z,86.70
2019-01-08T14:07:52.946Z,87.00
2019-01-08T14:10:26.149Z,87.00
2019-01-08T14:12:59.221Z,86.60
2019-01-08T14:15:30.114Z,86.50
2019-01-08T14:18:03.378Z,85.90
2019-01-08T14:20:35.336Z,85.90
2019-01-08T14:23:08.301Z,85.70
2019-01-08T14:25:35.936Z,87.60
2019-01-08T14:28:08.460Z,87.00
2019-01-08T14:30:40.985Z,87.80
2019-01-08T14:33:17.299Z,87.00
2019-01-08T14:35:50.808Z,87.40
2019-01-08T14:38:17.122Z,86.50
2019-01-08T14:40:55.891Z,86.20
2019-01-08T14:43:28.242Z,86.10
2019-01-08T14:45:54.637Z,86.50
2019-01-08T14:48:21.068Z,87.60
2019-01-08T14:50:55.411Z,87.00
2019-01-08T14:53:21.799Z,86.30
2019-01-08T14:55:53.376Z,87.60
2019-01-08T14:58:19.808Z,87.50
2019-01-08T15:00:46.105Z,87.30
2019-01-08T15:03:12.820Z,87.00
2019-01-08T15:05:39.110Z,86.70
2019-01-08T15:08:12.228Z,87.20
2019-01-08T15:10:50.185Z,87.40
2019-01-08T15:13:20.589Z,87.10
2019-01-08T15:15:54.161Z,86.40
2019-01-08T15:18:27.445Z,86.20
2019-01-08T15:21:02.242Z,86.80
2019-01-08T15:23:27.433Z,87.30
2019-01-08T15:26:02.358Z,87.00
2019-01-08T15:28:35.349Z,86.50
2019-01-08T15:31:09.789Z,87.00
2019-01-08T15:33:43.388Z,86.60
2019-01-08T15:36:09.694Z,86.70
2019-01-08T15:38:36.097Z,87.30
2019-01-08T15:41:02.743Z,86.90
2019-01-08T15:43:29.348Z,86.90
2019-01-08T15:45:55.637Z,87.10
2019-01-08T15:48:22.038Z,87.50
2019-01-08T15:50:48.631Z,87.50
2019-01-08T15:53:14.937Z,87.20
2019-01-08T15:55:41.238Z,87.00
2019-01-08T15:58:07.786Z,86.90
2019-01-08T16:00:34.079Z,86.90
2019-01-08T16:03:07.209Z,86.90
2019-01-08T16:05:28.571Z,86.90
2019-01-08T16:07:54.961Z,86.90
2019-01-08T16:10:21.291Z,86.70
2019-01-08T16:12:47.734Z,86.70
2019-01-08T16:15:14.268Z,86.70
2019-01-08T16:17:40.694Z,86.60
2019-01-08T16:20:07.097Z,86.60
2019-01-08T16:22:33.400Z,86.50
2019-01-08T16:24:59.694Z,86.50
2019-01-08T16:27:26.025Z,86.40
2019-01-08T16:29:52.322Z,86.40
2019-01-08T16:32:18.615Z,86.40
2019-01-08T16:34:45.041Z,86.50
2019-01-08T16:37:11.347Z,86.50
2019-01-08T16:39:50.296Z,86.80
2019-01-08T16:42:16.761Z,87.00
2019-01-08T16:44:43.062Z,87.30
2019-01-08T16:47:09.386Z,87.30
2019-01-08T16:49:35.673Z,87.60
2019-01-08T16:52:03.374Z,87.60
2019-01-08T16:54:30.572Z,88.60
2019-01-08T16:56:57.633Z,88.30
2019-01-08T16:59:23.954Z,88.60
2019-01-08T17:01:50.365Z,89.10
2019-01-08T17:04:16.685Z,89.10
2019-01-08T17:06:43.181Z,90.80
2019-01-08T17:09:09.509Z,90.70
2019-01-08T17:11:35.912Z,90.20
2019-01-08T17:14:09.299Z,90.10
2019-01-08T17:16:35.585Z,90.40
2019-01-08T17:19:01.889Z,89.80
2019-01-08T17:21:28.297Z,90.10
2019-01-08T17:23:55.072Z,90.30
2019-01-08T17:26:21.402Z,90.50
2019-01-08T17:28:47.722Z,90.00
2019-01-08T17:31:14.702Z,90.00
2019-01-08T17:33:41.117Z,89.90
2019-01-08T17:36:07.397Z,90.40
2019-01-08T17:38:33.736Z,90.20
2019-01-08T17:41:00.369Z,90.40
2019-01-08T17:43:33.551Z,90.40
2019-01-08T17:45:55.100Z,90.40
2019-01-08T17:48:21.821Z,90.40
2019-01-08T17:50:48.174Z,90.20
2019-01-08T17:53:15.484Z,90.40
2019-01-08T17:55:41.777Z,90.30
2019-01-08T17:58:34.756Z,90.30
2019-01-08T18:01:04.928Z,90.10
2019-01-08T18:03:42.847Z,90.50
2019-01-08T18:06:18.223Z,90.40
2019-01-08T18:08:52.111Z,89.60
2019-01-08T18:11:34.010Z,88.90
2019-01-08T18:14:08.731Z,90.30
2019-01-08T18:16:44.434Z,90.30
2019-01-08T18:19:16.014Z,90.50
2019-01-08T18:21:48.242Z,90.10
2019-01-08T18:24:28.260Z,89.90
2019-01-08T18:27:02.221Z,89.60
2019-01-08T18:29:34.014Z,89.30
2019-01-08T18:32:04.890Z,89.30
2019-01-08T18:34:41.325Z,89.90
2019-01-08T18:37:13.190Z,90.00
2019-01-08T18:39:45.914Z,89.10
2019-01-08T18:42:23.275Z,90.00
2019-01-08T18:44:55.824Z,88.90
2019-01-08T18:47:29.528Z,89.10
2019-01-08T18:50:06.094Z,88.90
2019-01-08T18:52:38.183Z,90.40
2019-01-08T18:55:14.362Z,90.50
2019-01-08T18:57:46.590Z,90.40
2019-01-08T19:00:20.171Z,90.30
2019-01-08T19:02:55.356Z,90.20
2019-01-08T19:05:34.485Z,90.20
2019-01-08T19:08:06.535Z,90.10
2019-01-08T19:10:42.112Z,90.10
2019-01-08T19:13:17.564Z,90.00
2019-01-08T19:15:50.562Z,89.90
2019-01-08T19:18:28.272Z,89.90
2019-01-08T19:21:04.248Z,89.70
2019-01-08T19:23:49.080Z,89.70
2019-01-08T19:26:21.455Z,89.60
2019-01-08T19:28:54.801Z,89.60
2019-01-08T19:31:30.587Z,89.50
2019-01-08T19:34:08.995Z,89.40
2019-01-08T19:36:37.800Z,89.20
2019-01-08T19:39:12.453Z,89.20
2019-01-08T19:41:39.403Z,89.20
2019-01-08T19:44:13.961Z,89.00
2019-01-08T19:46:40.405Z,88.90
2019-01-08T19:49:08.820Z,89.20
2019-01-08T19:51:42.671Z,88.90
2019-01-08T19:54:22.672Z,88.80
2019-01-08T19:56:55.042Z,88.90
2019-01-08T19:59:27.065Z,88.80
2019-01-08T20:02:01.557Z,88.70
2019-01-08T20:04:34.579Z,88.60
2019-01-08T20:07:05.092Z,88.90
2019-01-08T20:09:42.955Z,88.40
2019-01-08T20:12:14.197Z,88.10
2019-01-08T20:14:49.234Z,88.40
2019-01-08T20:17:20.693Z,88.30
2019-01-08T20:19:57.122Z,88.10
2019-01-08T20:22:30.186Z,88.20
2019-01-08T20:25:02.988Z,88.10
2019-01-08T20:27:39.044Z,87.80
2019-01-08T20:30:10.861Z,88.00
2019-01-08T20:32:37.345Z,87.90
2019-01-08T20:35:11.773Z,87.80
2019-01-08T20:37:46.439Z,87.80
2019-01-08T20:40:16.255Z,87.70
2019-01-08T20:42:43.245Z,87.80
2019-01-08T20:45:14.928Z,87.80
2019-01-08T20:47:53.052Z,90.40
2019-01-08T20:50:24.162Z,92.60
2019-01-08T20:52:58.115Z,93.60
2019-01-08T20:55:27.870Z,94.60
2019-01-08T20:57:54.177Z,95.70
2019-01-08T21:00:29.854Z,96.20
2019-01-08T21:03:04.627Z,96.70
2019-01-08T21:05:40.740Z,97.00
2019-01-08T21:08:13.911Z,97.30
2019-01-08T21:10:41.061Z,97.30
2019-01-08T21:13:09.210Z,97.30
2019-01-08T21:15:46.108Z,97.50
2019-01-08T21:18:16.696Z,97.50
2019-01-08T21:20:52.376Z,97.60
2019-01-08T21:23:17.636Z,97.60
2019-01-08T21:25:52.446Z,97.50
2019-01-08T21:28:25.548Z,97.60
2019-01-08T21:30:53.070Z,97.70
2019-01-08T21:33:19.667Z,97.80
2019-01-08T21:35:46.100Z,97.70
2019-01-08T21:38:12.397Z,97.80
2019-01-08T21:40:38.934Z,97.80
2019-01-08T21:43:05.887Z,97.90
2019-01-08T21:45:32.286Z,97.90
2019-01-08T21:47:58.603Z,97.90
2019-01-08T21:50:25.328Z,97.90
2019-01-08T21:52:51.746Z,97.90
2019-01-08T21:55:18.163Z,97.90
2019-01-08T21:57:44.469Z,97.90
2019-01-08T22:00:10.877Z,97.90
2019-01-08T22:02:37.940Z,98.30
2019-01-08T22:05:05.350Z,98.00
2019-01-08T22:07:31.968Z,97.90
2019-01-08T22:09:58.453Z,97.90
2019-01-08T22:12:24.874Z,97.90
2019-01-08T22:14:51.878Z,97.90
2019-01-08T22:17:18.222Z,97.90
2019-01-08T22:19:44.638Z,97.90
2019-01-08T22:22:11.043Z,98.00
2019-01-08T22:24:37.570Z,97.90
2019-01-08T22:27:04.200Z,97.90
2019-01-08T22:29:30.500Z,97.80
2019-01-08T22:31:56.824Z,97.50
2019-01-08T22:34:23.149Z,97.90
2019-01-08T22:36:49.558Z,97.90
2019-01-08T22:39:15.868Z,97.90
2019-01-08T22:41:42.314Z,97.80
2019-01-08T22:44:08.745Z,97.80
2019-01-08T22:46:35.173Z,97.90
2019-01-08T22:49:01.682Z,97.80
2019-01-08T22:51:27.985Z,97.80
2019-01-08T22:53:54.403Z,97.70
2019-01-08T22:56:21.246Z,97.80
2019-01-08T22:58:47.657Z,97.80
2019-01-08T23:01:17.169Z,97.80
2019-01-08T23:03:43.494Z,97.80
2019-01-08T23:06:09.898Z,97.80
2019-01-08T23:08:36.331Z,97.80
2019-01-08T23:11:02.838Z,97.80
2019-01-08T23:13:29.666Z,98.10
2019-01-08T23:15:55.992Z,97.80
2019-01-08T23:18:22.413Z,97.80
2019-01-08T23:20:48.724Z,97.80
2019-01-08T23:23:15.080Z,97.80
2019-01-08T23:25:41.390Z,97.80
2019-01-08T23:28:08.085Z,97.90
2019-01-08T23:30:34.603Z,97.80
2019-01-08T23:33:01.213Z,97.90
2019-01-08T23:35:27.834Z,97.80
2019-01-08T23:37:54.455Z,97.80
2019-01-08T23:40:20.981Z,97.80
2019-01-08T23:42:47.620Z,97.90
2019-01-08T23:45:14.016Z,97.90
2019-01-08T23:47:40.561Z,97.80
2019-01-08T23:50:07.131Z,97.80
2019-01-08T23:52:40.173Z,97.90
2019-01-08T23:55:06.473Z,97.90
2019-01-08T23:57:34.107Z,97.90
